Time;durP1;ratioP1;P1;durP2;ratioP2;P2;SDS_P1;SDS_P2;PMS_P1;PMS_P2;Temp;Humidity;BMP_temperature;BMP_pressure;BME280_temperature;BME280_humidity;BME280_pressure;Samples;Min_cycle;Max_cycle;Signal;HPM_P1;HPM_P2
2021/12/26 05:00:57;;;;;;;21.90;16.53;;;5.40;99.90;;;;;;5752175;23;20475;-69
2021/12/26 05:03:24;;;;;;;21.40;15.97;;;5.50;99.90;;;;;;4975654;28;20489;-69
2021/12/26 05:05:51;;;;;;;21.43;15.97;;;5.50;99.90;;;;;;4975786;28;20454;-69
2021/12/26 05:08:18;;;;;;;19.97;15.03;;;5.40;99.90;;;;;;4975248;28;20550;-68
2021/12/26 05:10:45;;;;;;;19.93;16.60;;;5.40;99.90;;;;;;4975183;28;20487;-69
2021/12/26 05:13:12;;;;;;;20.57;16.27;;;5.40;99.90;;;;;;4975227;28;20942;-69
2021/12/26 05:15:39;;;;;;;19.03;14.90;;;5.40;99.90;;;;;;4975147;28;20938;-69
2021/12/26 05:18:07;;;;;;;20.67;14.17;;;5.50;99.90;;;;;;4975289;28;20466;-69
2021/12/26 05:20:34;;;;;;;19.13;14.13;;;5.50;99.90;;;;;;4975011;28;21041;-69
2021/12/26 05:23:01;;;;;;;17.50;13.93;;;5.60;99.90;;;;;;4975249;28;20479;-69
2021/12/26 05:25:28;;;;;;;17.50;14.00;;;5.60;99.90;;;;;;4975380;28;20462;-69
2021/12/26 05:27:56;;;;;;;17.90;14.73;;;5.60;99.90;;;;;;4975293;28;20459;-69
2021/12/26 05:30:24;;;;;;;18.60;14.00;;;5.60;99.90;;;;;;4975056;28;20467;-69
2021/12/26 05:32:51;;;;;;;18.87;15.10;;;5.60;99.90;;;;;;4975283;28;20510;-69
2021/12/26 05:35:20;;;;;;;20.70;15.03;;;5.60;99.90;;;;;;4975187;28;20787;-69
2021/12/26 05:37:48;;;;;;;19.77;15.50;;;5.50;99.90;;;;;;4974869;28;20961;-69
2021/12/26 05:40:16;;;;;;;16.50;14.00;;;5.40;99.90;;;;;;4975093;28;20459;-69
2021/12/26 05:42:44;;;;;;;22.90;16.60;;;5.40;99.90;;;;;;4975158;28;20462;-68
2021/12/26 05:45:12;;;;;;;20.30;15.50;;;5.50;99.90;;;;;;4975163;28;20459;-68
2021/12/26 05:47:39;;;;;;;18.40;14.20;;;5.50;99.90;;;;;;4975367;28;20934;-69
2021/12/26 05:50:08;;;;;;;18.87;14.10;;;5.50;99.90;;;;;;4974973;28;20466;-69
2021/12/26 05:52:36;;;;;;;20.70;15.67;;;5.50;99.90;;;;;;4974821;28;20986;-69
2021/12/26 05:55:04;;;;;;;20.50;14.33;;;5.60;99.90;;;;;;4974906;28;20467;-68
2021/12/26 05:57:30;;;;;;;20.47;15.60;;;5.60;99.90;;;;;;4974942;28;20455;-69
2021/12/26 05:59:57;;;;;;;24.60;16.17;;;5.60;99.90;;;;;;4974956;28;20467;-70
2021/12/26 06:02:24;;;;;;;25.17;17.60;;;5.60;99.90;;;;;;4974780;28;20832;-69
2021/12/26 06:04:51;;;;;;;27.97;19.80;;;5.50;99.90;;;;;;4975293;28;20525;-70
2021/12/26 06:07:18;;;;;;;26.70;17.77;;;5.50;99.90;;;;;;4974632;28;20937;-69
2021/12/26 06:09:47;;;;;;;24.33;17.50;;;5.50;99.90;;;;;;4975342;28;20517;-69
2021/12/26 06:12:14;;;;;;;25.80;18.40;;;5.50;99.90;;;;;;4976473;28;20835;-69
2021/12/26 06:14:40;;;;;;;25.93;18.03;;;5.60;99.90;;;;;;4975509;28;20451;-69
2021/12/26 06:17:07;;;;;;;21.50;16.67;;;5.60;99.90;;;;;;4974785;28;20861;-68
2021/12/26 06:19:34;;;;;;;21.83;16.47;;;5.60;99.90;;;;;;4978099;28;20466;-69
2021/12/26 06:22:02;;;;;;;20.07;16.90;;;5.60;99.90;;;;;;4978534;28;20482;-68
2021/12/26 06:24:29;;;;;;;23.00;17.30;;;5.60;99.90;;;;;;4978524;28;20475;-68
2021/12/26 06:26:57;;;;;;;21.40;16.03;;;5.60;99.90;;;;;;4978445;28;20458;-69
2021/12/26 06:29:24;;;;;;;21.07;16.90;;;5.60;99.90;;;;;;4978472;28;20824;-69
2021/12/26 06:31:51;;;;;;;25.57;16.90;;;5.60;99.90;;;;;;4978216;28;20475;-68
2021/12/26 06:34:18;;;;;;;23.33;17.53;;;5.70;99.90;;;;;;4978327;28;20459;-68
2021/12/26 06:36:44;;;;;;;24.43;17.53;;;5.70;99.90;;;;;;4980080;28;20793;-68
2021/12/26 06:39:11;;;;;;;24.37;18.90;;;5.70;99.90;;;;;;4980015;28;20463;-68
2021/12/26 06:41:39;;;;;;;22.60;16.67;;;5.60;99.90;;;;;;4980081;28;20513;-69
2021/12/26 06:44:08;;;;;;;20.80;17.17;;;5.70;99.90;;;;;;4979648;28;20841;-68
2021/12/26 06:46:36;;;;;;;23.03;16.43;;;5.70;99.90;;;;;;4978566;28;20553;-69
2021/12/26 06:49:04;;;;;;;21.20;15.37;;;5.80;99.90;;;;;;4978477;28;20554;-68
2021/12/26 06:51:31;;;;;;;20.00;15.30;;;5.80;99.90;;;;;;4978113;28;20549;-69
2021/12/26 06:53:58;;;;;;;20.93;16.03;;;5.80;99.90;;;;;;4977980;28;20462;-69
2021/12/26 06:56:24;;;;;;;24.03;16.43;;;5.80;99.90;;;;;;4978155;28;20467;-68
2021/12/26 06:58:51;;;;;;;18.27;14.87;;;5.80;99.90;;;;;;4978019;28;20462;-69
2021/12/26 07:01:19;;;;;;;22.47;15.43;;;5.80;99.90;;;;;;4977541;28;20490;-69
2021/12/26 07:03:46;;;;;;;24.73;16.07;;;5.80;99.90;;;;;;4977440;28;20479;-69
2021/12/26 07:06:13;;;;;;;22.97;16.80;;;5.90;99.90;;;;;;4977800;28;20450;-69
2021/12/26 07:08:39;;;;;;;22.40;15.97;;;5.80;99.90;;;;;;4977735;28;20463;-68
2021/12/26 07:11:06;;;;;;;20.97;16.47;;;5.90;99.90;;;;;;4977470;28;20475;-69
2021/12/26 07:13:33;;;;;;;20.10;15.20;;;5.90;99.90;;;;;;4977267;28;20797;-69
2021/12/26 07:15:59;;;;;;;21.33;16.50;;;5.90;99.90;;;;;;4977327;28;20459;-68
2021/12/26 07:18:27;;;;;;;19.47;15.10;;;6.00;99.90;;;;;;4977352;28;20455;-68
2021/12/26 07:20:54;;;;;;;20.23;16.60;;;6.00;99.90;;;;;;4977310;28;20478;-68
2021/12/26 07:23:21;;;;;;;20.60;16.50;;;5.90;99.90;;;;;;4977606;28;20459;-67
2021/12/26 07:25:48;;;;;;;19.30;15.37;;;5.90;99.90;;;;;;4977537;28;20463;-68
2021/12/26 07:28:14;;;;;;;22.43;16.63;;;5.90;99.90;;;;;;4979675;28;20451;-69
2021/12/26 07:30:41;;;;;;;21.77;15.73;;;5.90;99.90;;;;;;4981030;28;20506;-68
2021/12/26 07:33:08;;;;;;;22.10;17.17;;;5.90;99.90;;;;;;4981218;28;20947;-69
2021/12/26 07:35:36;;;;;;;21.27;15.73;;;5.80;99.90;;;;;;4981553;28;20455;-68
2021/12/26 07:38:03;;;;;;;21.50;15.50;;;5.80;99.90;;;;;;4982664;28;20455;-67
2021/12/26 07:40:29;;;;;;;21.57;15.33;;;5.80;99.90;;;;;;4985676;28;20455;-67
2021/12/26 07:42:56;;;;;;;25.57;16.10;;;5.80;99.90;;;;;;4985492;28;20455;-68
2021/12/26 07:45:23;;;;;;;21.10;16.47;;;5.80;99.90;;;;;;4988009;28;20478;-68
2021/12/26 07:47:50;;;;;;;20.80;15.60;;;5.80;99.90;;;;;;4993055;28;20451;-69
2021/12/26 07:50:16;;;;;;;20.03;16.33;;;5.90;99.90;;;;;;4992801;28;20476;-70
2021/12/26 07:52:46;;;;;;;22.87;16.80;;;6.00;99.90;;;;;;4993358;28;20903;-68
2021/12/26 07:55:14;;;;;;;23.37;16.90;;;6.00;99.90;;;;;;4993240;28;20513;-69
2021/12/26 07:57:44;;;;;;;21.57;16.03;;;6.00;99.90;;;;;;4987843;28;20451;-68
2021/12/26 08:00:12;;;;;;;20.50;15.90;;;6.10;99.90;;;;;;4986215;28;20459;-70
2021/12/26 08:02:39;;;;;;;23.30;17.93;;;6.10;99.90;;;;;;4981274;28;21027;-69
2021/12/26 08:05:06;;;;;;;23.40;18.40;;;6.10;99.90;;;;;;4978029;28;21020;-69
2021/12/26 08:07:34;;;;;;;24.80;18.03;;;6.10;99.90;;;;;;4977736;28;20454;-69
2021/12/26 08:10:03;;;;;;;26.23;18.20;;;6.10;99.90;;;;;;4977707;28;20983;-69
2021/12/26 08:12:30;;;;;;;29.93;18.37;;;6.00;99.90;;;;;;4977096;28;20472;-69
2021/12/26 08:14:59;;;;;;;28.53;18.97;;;6.00;99.90;;;;;;4977213;28;20455;-69
2021/12/26 08:17:26;;;;;;;26.87;18.53;;;6.00;99.90;;;;;;4977045;28;20452;-69
2021/12/26 08:19:53;;;;;;;26.87;18.17;;;6.00;99.90;;;;;;4981966;28;20513;-69
2021/12/26 08:22:19;;;;;;;25.70;17.27;;;6.00;99.90;;;;;;4989561;28;20486;-69
2021/12/26 08:24:46;;;;;;;26.43;17.93;;;6.10;99.90;;;;;;4989872;28;20479;-69
2021/12/26 08:27:15;;;;;;;30.30;19.20;;;6.00;99.90;;;;;;4988665;28;20537;-69
2021/12/26 08:29:41;;;;;;;27.83;17.60;;;5.90;99.90;;;;;;4990369;28;20463;-69
2021/12/26 08:32:12;;;;;;;26.83;17.97;;;5.90;99.90;;;;;;4989058;28;20856;-69
2021/12/26 08:34:39;;;;;;;28.87;19.80;;;5.90;99.90;;;;;;4990807;28;20834;-69
2021/12/26 08:37:06;;;;;;;24.47;17.30;;;5.90;99.90;;;;;;4989647;28;20459;-69
2021/12/26 08:39:35;;;;;;;24.03;18.47;;;5.90;99.90;;;;;;4988691;28;20451;-69
2021/12/26 08:42:02;;;;;;;31.47;19.23;;;6.00;99.90;;;;;;4985427;28;20471;-68
2021/12/26 08:44:31;;;;;;;29.87;19.30;;;6.00;99.90;;;;;;4983429;28;20474;-67
2021/12/26 08:46:57;;;;;;;29.30;20.00;;;5.80;99.90;;;;;;4979605;28;20954;-68
2021/12/26 08:49:24;;;;;;;26.00;18.00;;;5.90;99.90;;;;;;4977289;28;21001;-70
2021/12/26 08:51:52;;;;;;;25.77;18.20;;;6.00;99.90;;;;;;4976310;28;20479;-69
2021/12/26 08:54:19;;;;;;;23.87;17.37;;;6.10;99.90;;;;;;4977767;28;20478;-71
2021/12/26 08:56:45;;;;;;;24.13;18.27;;;6.10;99.90;;;;;;4976875;28;20439;-70
2021/12/26 08:59:12;;;;;;;22.27;17.33;;;6.20;99.90;;;;;;4976682;28;20461;-70
2021/12/26 09:01:41;;;;;;;23.67;16.43;;;6.30;99.90;;;;;;4977349;28;20482;-69
2021/12/26 09:04:08;;;;;;;28.70;18.40;;;6.30;99.90;;;;;;4976710;28;20884;-69
2021/12/26 09:06:34;;;;;;;26.77;18.73;;;6.30;99.90;;;;;;4977581;28;20459;-70
2021/12/26 09:09:01;;;;;;;20.93;17.33;;;6.30;99.90;;;;;;4976066;28;20459;-69
2021/12/26 09:11:28;;;;;;;18.80;15.10;;;6.40;99.90;;;;;;4975839;28;20482;-69
2021/12/26 09:13:54;;;;;;;22.57;16.90;;;6.40;99.90;;;;;;4975903;28;20466;-69
2021/12/26 09:16:21;;;;;;;22.13;17.03;;;6.50;99.90;;;;;;4975172;28;20964;-69
2021/12/26 09:18:50;;;;;;;22.30;17.20;;;6.50;99.90;;;;;;4975637;28;20450;-69
2021/12/26 09:21:17;;;;;;;21.53;16.33;;;6.60;99.90;;;;;;4976284;28;20472;-69
2021/12/26 09:23:43;;;;;;;23.97;17.47;;;6.50;99.90;;;;;;4975771;28;20439;-69
2021/12/26 09:26:10;;;;;;;21.97;16.70;;;6.50;99.90;;;;;;4975827;28;20455;-68
2021/12/26 09:28:38;;;;;;;19.47;16.40;;;6.60;99.90;;;;;;4975414;28;20463;-68
2021/12/26 09:31:05;;;;;;;22.47;17.73;;;6.70;99.90;;;;;;4975468;28;21069;-69
2021/12/26 09:33:32;;;;;;;22.33;16.67;;;6.80;99.90;;;;;;4975521;28;20454;-69
2021/12/26 09:36:00;;;;;;;24.27;16.23;;;6.80;99.90;;;;;;4975347;28;20451;-68
2021/12/26 09:38:28;;;;;;;20.33;15.13;;;6.80;99.90;;;;;;4975222;28;20565;-67
2021/12/26 09:40:55;;;;;;;22.73;17.97;;;6.90;99.90;;;;;;4975198;28;20471;-67
2021/12/26 09:43:22;;;;;;;17.73;15.07;;;7.00;99.90;;;;;;4975681;28;20455;-67
2021/12/26 09:45:48;;;;;;;19.00;16.37;;;7.10;99.90;;;;;;4975290;28;20936;-68
2021/12/26 09:48:15;;;;;;;19.57;16.30;;;7.10;99.90;;;;;;4975111;28;20451;-68
2021/12/26 09:50:42;;;;;;;21.83;17.33;;;7.20;99.90;;;;;;4974908;28;20482;-69
2021/12/26 09:53:10;;;;;;;19.30;16.07;;;7.30;99.90;;;;;;4976261;28;20502;-68
2021/12/26 09:55:37;;;;;;;20.10;17.00;;;7.30;99.90;;;;;;4978663;28;20973;-69
2021/12/26 09:58:04;;;;;;;20.57;17.60;;;7.30;99.90;;;;;;4978937;28;20462;-68
2021/12/26 10:00:34;;;;;;;19.17;16.00;;;7.40;99.90;;;;;;4978852;28;20808;-69
2021/12/26 10:03:20;;;;;;;19.17;16.60;;;7.50;99.90;;;;;;4978739;28;20443;-70
2021/12/26 10:06:09;;;;;;;20.03;17.17;;;7.60;99.90;;;;;;4978271;28;20470;-71
2021/12/26 10:08:53;;;;;;;21.60;17.20;;;7.70;99.90;;;;;;4978513;28;20530;-70
2021/12/26 10:11:22;;;;;;;21.83;17.10;;;7.70;99.90;;;;;;4978404;28;20493;-68
2021/12/26 10:13:51;;;;;;;18.53;16.17;;;7.80;99.90;;;;;;4978397;28;20459;-68
2021/12/26 10:16:21;;;;;;;18.37;16.40;;;7.80;99.90;;;;;;4978212;28;20935;-68
2021/12/26 10:18:48;;;;;;;20.37;16.60;;;7.80;99.90;;;;;;4979764;28;20893;-68
2021/12/26 10:21:36;;;;;;;22.27;18.03;;;8.00;99.90;;;;;;4977987;28;20474;-68
2021/12/26 10:24:08;;;;;;;21.93;17.30;;;8.00;99.90;;;;;;4978456;28;20463;-67
2021/12/26 10:26:37;;;;;;;22.50;18.80;;;7.90;99.90;;;;;;4977934;28;20439;-66
2021/12/26 10:29:10;;;;;;;22.33;18.83;;;8.00;99.90;;;;;;4978220;28;20460;-67
2021/12/26 10:31:43;;;;;;;19.00;16.90;;;8.10;99.90;;;;;;4977702;28;20825;-67
2021/12/26 10:34:17;;;;;;;17.23;15.37;;;8.20;99.90;;;;;;4978147;28;20470;-69
2021/12/26 10:36:45;;;;;;;24.30;18.87;;;8.30;99.90;;;;;;4978398;28;20462;-70
2021/12/26 10:39:17;;;;;;;19.57;17.33;;;8.30;99.90;;;;;;4977537;28;20952;-70
2021/12/26 10:41:47;;;;;;;21.10;18.03;;;8.30;99.90;;;;;;4977794;28;20482;-70
2021/12/26 10:44:29;;;;;;;18.83;16.60;;;8.40;99.90;;;;;;4977748;28;20459;-70
2021/12/26 10:46:59;;;;;;;23.17;17.60;;;8.30;99.90;;;;;;4978260;28;20450;-71
2021/12/26 10:49:29;;;;;;;18.37;16.20;;;8.30;99.90;;;;;;4978491;28;20894;-70
2021/12/26 10:51:55;;;;;;;19.60;16.70;;;8.30;99.90;;;;;;4977765;28;20483;-71
2021/12/26 10:54:30;;;;;;;21.20;18.10;;;8.30;99.90;;;;;;4979657;28;20459;-71
2021/12/26 10:57:06;;;;;;;20.23;16.70;;;8.30;99.90;;;;;;4986875;28;20897;-71
2021/12/26 10:59:33;;;;;;;18.13;16.13;;;8.30;99.90;;;;;;4978316;28;20461;-71
2021/12/26 11:02:00;;;;;;;19.90;15.63;;;8.40;99.90;;;;;;4976886;28;20535;-70
2021/12/26 11:04:27;;;;;;;18.90;16.27;;;8.40;99.90;;;;;;4976250;28;20459;-70
2021/12/26 11:06:58;;;;;;;18.13;16.03;;;8.40;99.90;;;;;;4976998;28;20946;-68
2021/12/26 11:09:26;;;;;;;19.83;16.40;;;8.40;99.90;;;;;;4977472;28;20439;-68
2021/12/26 11:12:08;;;;;;;20.80;16.80;;;8.30;99.90;;;;;;4977990;28;20487;-68
2021/12/26 11:14:59;;;;;;;19.10;17.10;;;8.30;99.90;;;;;;4978219;28;20446;-68
2021/12/26 11:17:31;;;;;;;18.77;16.07;;;8.20;99.90;;;;;;4978421;28;20928;-70
2021/12/26 11:19:58;;;;;;;20.83;18.07;;;8.20;99.90;;;;;;4977582;28;20463;-70
2021/12/26 11:22:25;;;;;;;17.33;15.40;;;8.20;99.90;;;;;;4977381;28;20481;-70
2021/12/26 11:24:54;;;;;;;17.83;15.93;;;8.20;99.90;;;;;;4977307;28;20487;-70
2021/12/26 11:27:22;;;;;;;18.53;15.37;;;8.20;99.90;;;;;;4977442;28;20459;-70
2021/12/26 11:29:49;;;;;;;19.23;15.80;;;8.30;99.90;;;;;;4977358;28;20844;-70
2021/12/26 11:32:17;;;;;;;17.80;15.80;;;8.40;99.90;;;;;;4977909;28;20611;-72
2021/12/26 11:34:47;;;;;;;20.83;16.67;;;8.30;99.90;;;;;;4977388;28;20490;-70
2021/12/26 11:37:14;;;;;;;19.13;16.90;;;8.40;99.90;;;;;;4977590;28;20844;-69
2021/12/26 11:39:43;;;;;;;16.57;14.60;;;8.50;99.90;;;;;;4979686;28;20821;-70
2021/12/26 11:42:34;;;;;;;16.23;14.53;;;8.80;99.90;;;;;;4982341;28;20475;-70
2021/12/26 11:45:11;;;;;;;15.87;14.13;;;9.20;99.90;;;;;;4981142;28;20482;-70
2021/12/26 11:48:10;;;;;;;14.60;13.10;;;9.40;99.90;;;;;;4979437;28;20443;-70
2021/12/26 11:50:49;;;;;;;14.80;13.37;;;9.60;99.90;;;;;;4977808;28;20562;-69
2021/12/26 11:53:38;;;;;;;15.47;13.70;;;9.70;99.90;;;;;;4977269;28;20471;-70
2021/12/26 11:56:17;;;;;;;14.77;13.33;;;9.90;99.90;;;;;;4977363;28;20491;-70
2021/12/26 11:59:02;;;;;;;12.90;11.70;;;10.10;99.90;;;;;;4977072;28;20454;-70
2021/12/26 12:01:30;;;;;;;14.13;12.80;;;10.20;99.90;;;;;;4976462;28;20522;-69
2021/12/26 12:04:12;;;;;;;14.00;12.70;;;10.20;99.90;;;;;;4976618;28;20838;-70
2021/12/26 12:06:39;;;;;;;13.80;12.40;;;10.20;99.90;;;;;;4976788;28;20479;-70
2021/12/26 12:09:26;;;;;;;13.00;11.80;;;10.10;99.90;;;;;;4977380;28;20452;-70
2021/12/26 12:12:01;;;;;;;13.87;12.57;;;10.10;99.90;;;;;;4976808;28;20482;-70
2021/12/26 12:14:52;;;;;;;13.33;12.00;;;10.20;99.90;;;;;;4976511;28;20438;-70
2021/12/26 12:17:22;;;;;;;11.17;10.07;;;10.10;99.90;;;;;;4975793;28;20444;-70
2021/12/26 12:20:08;;;;;;;11.53;10.47;;;10.10;99.90;;;;;;4976663;28;20445;-70
2021/12/26 12:22:36;;;;;;;11.17;10.17;;;10.00;99.90;;;;;;4976400;28;20482;-70
2021/12/26 12:25:40;;;;;;;11.03;9.97;;;10.10;99.90;;;;;;4976388;28;20468;-70
2021/12/26 12:28:10;;;;;;;10.30;8.77;;;10.20;99.90;;;;;;4916729;29;20451;-70
2021/12/26 12:30:39;;;;;;;9.90;9.00;;;10.20;99.90;;;;;;4917102;29;20483;-69
2021/12/26 12:33:18;;;;;;;10.60;9.70;;;10.30;99.90;;;;;;4947228;28;20451;-69
2021/12/26 12:35:58;;;;;;;10.60;9.60;;;10.30;99.90;;;;;;4975686;28;20446;-70
2021/12/26 12:38:28;;;;;;;10.47;9.53;;;10.20;99.90;;;;;;4976353;28;20466;-71
2021/12/26 12:40:56;;;;;;;9.73;8.93;;;10.20;99.90;;;;;;4975997;28;20475;-70
2021/12/26 12:43:25;;;;;;;10.93;9.70;;;10.10;99.90;;;;;;4975662;28;20453;-70
2021/12/26 12:46:06;;;;;;;9.13;8.33;;;10.00;99.90;;;;;;4975212;28;21011;-70
2021/12/26 12:48:38;;;;;;;8.70;7.93;;;9.90;99.90;;;;;;4976416;28;20468;-71
2021/12/26 12:51:45;;;;;;;8.63;7.90;;;9.80;99.90;;;;;;4975721;28;20854;-69
2021/12/26 12:54:21;;;;;;;8.87;8.17;;;9.80;99.90;;;;;;4975427;28;20463;-68
2021/12/26 12:56:48;;;;;;;9.53;8.73;;;9.80;99.90;;;;;;4975903;28;20446;-70
2021/12/26 12:59:39;;;;;;;10.17;9.10;;;9.70;99.90;;;;;;4975954;28;20547;-69
2021/12/26 13:02:10;;;;;;;8.73;7.97;;;9.70;99.90;;;;;;4975423;28;20497;-69
2021/12/26 13:04:45;;;;;;;9.30;8.50;;;9.70;99.90;;;;;;4976009;28;20442;-69
2021/12/26 13:07:16;;;;;;;10.17;9.13;;;9.70;99.90;;;;;;4975498;28;20480;-69
2021/12/26 13:09:51;;;;;;;8.60;7.90;;;9.70;99.90;;;;;;4975870;28;20463;-67
2021/12/26 13:12:20;;;;;;;7.93;7.23;;;9.70;99.90;;;;;;4975771;28;20978;-69
2021/12/26 13:14:48;;;;;;;9.30;8.50;;;9.70;99.90;;;;;;4975768;28;20444;-69
2021/12/26 13:17:24;;;;;;;8.10;7.40;;;9.70;99.90;;;;;;4975812;28;20453;-69
2021/12/26 13:19:54;;;;;;;9.43;8.63;;;9.70;99.90;;;;;;4976138;28;20446;-67
2021/12/26 13:22:21;;;;;;;9.60;8.70;;;9.70;99.90;;;;;;4980712;28;20505;-71
2021/12/26 13:24:47;;;;;;;9.20;8.43;;;9.60;99.90;;;;;;4980099;28;20466;-69
2021/12/26 13:27:22;;;;;;;9.03;8.23;;;9.60;99.90;;;;;;4975340;28;20464;-70
2021/12/26 13:29:50;;;;;;;8.50;7.80;;;9.70;99.90;;;;;;4975489;28;20493;-70
2021/12/26 13:32:18;;;;;;;9.43;8.53;;;9.70;99.90;;;;;;4975148;28;20526;-69
2021/12/26 13:34:53;;;;;;;8.83;8.03;;;9.80;99.90;;;;;;4975640;28;20855;-70
2021/12/26 13:37:20;;;;;;;10.70;9.50;;;9.80;99.90;;;;;;4975258;28;20444;-69
2021/12/26 13:39:54;;;;;;;8.70;8.00;;;9.90;99.90;;;;;;4974991;28;20974;-68
2021/12/26 13:42:21;;;;;;;12.83;9.07;;;10.00;99.90;;;;;;4975477;28;20555;-68
2021/12/26 13:44:48;;;;;;;8.40;7.70;;;10.00;99.90;;;;;;4975529;28;20803;-68
2021/12/26 13:47:15;;;;;;;15.17;13.67;;;10.10;99.90;;;;;;4975259;28;20488;-68
2021/12/26 13:49:43;;;;;;;16.37;14.67;;;10.00;99.90;;;;;;4974792;28;20943;-68
2021/12/26 13:52:10;;;;;;;17.33;15.53;;;10.00;99.90;;;;;;4975060;28;20479;-68
2021/12/26 13:54:47;;;;;;;18.80;16.70;;;10.00;99.90;;;;;;4975048;28;20464;-68
2021/12/26 13:57:16;;;;;;;16.43;14.73;;;9.90;99.90;;;;;;4975211;28;20446;-68
2021/12/26 13:59:45;;;;;;;17.80;15.97;;;9.80;99.90;;;;;;4974662;28;20495;-68
2021/12/26 14:02:15;;;;;;;17.37;15.47;;;9.70;99.90;;;;;;4975044;28;20484;-68
2021/12/26 14:04:45;;;;;;;18.10;15.50;;;9.70;99.90;;;;;;4975206;28;20464;-68
2021/12/26 14:07:14;;;;;;;16.97;15.23;;;9.70;99.90;;;;;;4975245;28;20478;-68
2021/12/26 14:09:43;;;;;;;16.93;15.07;;;9.70;99.90;;;;;;4975349;28;20814;-69
2021/12/26 14:12:30;;;;;;;18.50;15.13;;;9.70;99.90;;;;;;4974794;28;20483;-69
2021/12/26 14:15:21;;;;;;;17.17;15.37;;;9.60;99.90;;;;;;4975168;28;20447;-69
2021/12/26 14:17:57;;;;;;;19.50;17.43;;;9.60;99.90;;;;;;4975053;28;20908;-69
2021/12/26 14:20:26;;;;;;;19.60;17.47;;;9.50;99.90;;;;;;4975253;28;20807;-69
2021/12/26 14:22:54;;;;;;;21.00;17.50;;;9.60;99.90;;;;;;4975498;28;20457;-69
2021/12/26 14:25:23;;;;;;;18.30;16.40;;;9.60;99.90;;;;;;4974806;28;20491;-70
2021/12/26 14:27:50;;;;;;;17.97;16.07;;;9.70;99.90;;;;;;4974782;28;21025;-70
2021/12/26 14:30:17;;;;;;;17.73;15.83;;;9.70;99.90;;;;;;4975009;28;20805;-71
2021/12/26 14:32:58;;;;;;;17.50;15.40;;;9.70;99.90;;;;;;4975084;28;20463;-69
2021/12/26 14:35:26;;;;;;;16.27;14.57;;;9.70;99.90;;;;;;4974526;28;20914;-69
2021/12/26 14:38:10;;;;;;;16.37;14.67;;;9.60;99.90;;;;;;4974914;28;20465;-70
2021/12/26 14:40:48;;;;;;;16.90;15.20;;;9.70;99.90;;;;;;4977904;28;20487;-71
2021/12/26 14:43:15;;;;;;;17.20;15.00;;;9.70;99.90;;;;;;4979204;28;20784;-71
2021/12/26 14:45:47;;;;;;;17.43;15.63;;;9.60;99.90;;;;;;4978548;28;20475;-70
2021/12/26 14:48:28;;;;;;;18.60;16.80;;;9.60;99.90;;;;;;4978476;28;20483;-71
2021/12/26 14:51:07;;;;;;;23.30;18.50;;;9.60;99.90;;;;;;4978283;28;20845;-71
2021/12/26 14:53:34;;;;;;;19.97;16.80;;;9.50;99.90;;;;;;4978499;28;20444;-70
2021/12/26 14:56:02;;;;;;;21.10;18.30;;;9.40;99.90;;;;;;4979416;28;20455;-70
2021/12/26 14:58:44;;;;;;;20.60;17.87;;;9.30;99.90;;;;;;4984612;28;20440;-70
2021/12/26 15:01:24;;;;;;;20.10;17.70;;;9.20;99.90;;;;;;4983666;28;20911;-71
2021/12/26 15:03:52;;;;;;;19.30;17.30;;;9.20;99.90;;;;;;4983237;28;20460;-70
2021/12/26 15:06:20;;;;;;;23.10;19.53;;;9.00;99.90;;;;;;4981877;28;20575;-70
2021/12/26 15:08:46;;;;;;;21.87;19.57;;;9.00;99.90;;;;;;4978524;28;20459;-68
2021/12/26 15:11:13;;;;;;;21.47;18.30;;;9.00;99.90;;;;;;4977626;28;20475;-69
2021/12/26 15:13:41;;;;;;;21.77;16.40;;;9.00;99.90;;;;;;4977592;28;20463;-68
2021/12/26 15:16:09;;;;;;;19.80;17.60;;;9.00;99.90;;;;;;4977976;28;20544;-68
2021/12/26 15:18:35;;;;;;;20.73;17.67;;;8.90;99.90;;;;;;4977446;28;20495;-69
2021/12/26 15:21:07;;;;;;;19.70;17.60;;;8.80;99.90;;;;;;4977389;28;20477;-68
2021/12/26 15:23:40;;;;;;;21.00;18.03;;;8.70;99.90;;;;;;4977287;28;20459;-69
2021/12/26 15:26:08;;;;;;;19.60;17.50;;;8.70;99.90;;;;;;4977196;28;20499;-69
2021/12/26 15:28:38;;;;;;;23.10;19.70;;;8.80;99.90;;;;;;4977425;28;20470;-68
2021/12/26 15:31:08;;;;;;;21.50;19.00;;;8.70;99.90;;;;;;4977282;28;20843;-68
2021/12/26 15:33:38;;;;;;;20.97;18.10;;;8.70;99.90;;;;;;4977657;28;20528;-68
2021/12/26 15:36:07;;;;;;;23.00;18.77;;;8.80;99.90;;;;;;4977664;28;20448;-68
2021/12/26 15:38:36;;;;;;;20.57;18.30;;;8.80;99.90;;;;;;4977485;28;20464;-69
2021/12/26 15:41:03;;;;;;;15.37;13.73;;;8.80;99.90;;;;;;4978713;28;20475;-69
2021/12/26 15:43:30;;;;;;;19.73;14.20;;;8.80;99.90;;;;;;4981403;28;20456;-69
2021/12/26 15:45:57;;;;;;;13.90;12.50;;;8.80;99.90;;;;;;4981281;28;20543;-69
2021/12/26 15:48:24;;;;;;;13.90;11.67;;;8.80;99.90;;;;;;4977502;28;20455;-69
2021/12/26 15:50:51;;;;;;;13.10;10.03;;;8.80;99.90;;;;;;4979220;28;20482;-68
2021/12/26 15:53:18;;;;;;;9.50;8.60;;;8.90;99.90;;;;;;4977300;28;20466;-68
2021/12/26 15:55:46;;;;;;;9.40;8.50;;;8.90;99.90;;;;;;4977069;28;20444;-68
2021/12/26 15:58:13;;;;;;;8.80;8.00;;;8.90;99.90;;;;;;4976846;28;20992;-67
2021/12/26 16:00:39;;;;;;;10.00;8.57;;;8.80;99.90;;;;;;4976485;28;20543;-69
2021/12/26 16:03:06;;;;;;;10.03;9.03;;;8.70;99.90;;;;;;4977662;28;20549;-68
2021/12/26 16:05:33;;;;;;;10.27;9.37;;;8.70;99.90;;;;;;4977978;28;20787;-68
2021/12/26 16:08:01;;;;;;;10.50;8.80;;;8.70;99.90;;;;;;4977362;28;21040;-68
2021/12/26 16:10:28;;;;;;;8.40;7.60;;;8.70;99.90;;;;;;4977206;28;20487;-68
2021/12/26 16:12:57;;;;;;;10.03;8.67;;;8.60;99.90;;;;;;4977331;28;20462;-68
2021/12/26 16:15:24;;;;;;;9.80;8.83;;;8.60;99.90;;;;;;4977145;28;20451;-68
2021/12/26 16:17:51;;;;;;;9.70;8.70;;;8.60;99.90;;;;;;4977729;28;20432;-68
2021/12/26 16:20:18;;;;;;;7.90;7.20;;;8.50;99.90;;;;;;4976606;28;20798;-69
2021/12/26 16:22:47;;;;;;;8.10;7.30;;;8.50;99.90;;;;;;4976991;28;20463;-70
2021/12/26 16:25:14;;;;;;;8.30;7.50;;;8.40;99.90;;;;;;4976175;28;20459;-69
2021/12/26 16:27:42;;;;;;;8.13;7.30;;;8.40;99.90;;;;;;4976907;28;20486;-69
2021/12/26 16:30:13;;;;;;;9.60;8.40;;;8.40;99.90;;;;;;4977133;28;20451;-69
2021/12/26 16:32:41;;;;;;;7.60;6.90;;;8.40;99.90;;;;;;4976187;28;20486;-68
2021/12/26 16:35:09;;;;;;;10.40;9.50;;;8.40;99.90;;;;;;4976284;28;20459;-72
2021/12/26 16:37:36;;;;;;;7.87;7.07;;;8.40;99.90;;;;;;4976975;28;20451;-68
2021/12/26 16:40:03;;;;;;;7.20;6.60;;;8.40;99.90;;;;;;4976161;28;20462;-69
2021/12/26 16:42:30;;;;;;;8.70;7.83;;;8.40;99.90;;;;;;4975907;28;20503;-69
2021/12/26 16:44:57;;;;;;;9.00;8.10;;;8.40;99.90;;;;;;4976337;28;20467;-70
2021/12/26 16:47:25;;;;;;;8.57;7.73;;;8.40;99.90;;;;;;4975818;28;20856;-72
2021/12/26 16:49:52;;;;;;;9.90;8.30;;;8.40;99.90;;;;;;4976114;28;20562;-71
2021/12/26 16:52:19;;;;;;;9.20;8.30;;;8.40;99.90;;;;;;4975989;28;20475;-72
2021/12/26 16:54:46;;;;;;;9.83;8.80;;;8.40;99.90;;;;;;4975405;28;20946;-72
2021/12/26 16:57:14;;;;;;;9.10;8.30;;;8.30;99.90;;;;;;4975702;28;20939;-72
2021/12/26 16:59:41;;;;;;;11.50;8.90;;;8.20;99.90;;;;;;4975333;28;20454;-72
2021/12/26 17:02:09;;;;;;;9.73;8.63;;;8.20;99.90;;;;;;4974576;28;20487;-72
2021/12/26 17:04:37;;;;;;;9.33;8.27;;;8.10;99.90;;;;;;4975277;28;20463;-73
2021/12/26 17:07:04;;;;;;;10.73;9.57;;;8.00;99.90;;;;;;4975677;28;20501;-73
2021/12/26 17:09:31;;;;;;;12.63;9.60;;;8.00;99.90;;;;;;4975468;28;20461;-72
2021/12/26 17:11:59;;;;;;;11.07;9.93;;;8.00;99.90;;;;;;4975405;28;20482;-72
2021/12/26 17:14:26;;;;;;;12.83;10.40;;;7.90;99.90;;;;;;4975305;28;20455;-71
2021/12/26 17:16:53;;;;;;;11.30;9.83;;;7.90;99.90;;;;;;4975314;28;20455;-73
2021/12/26 17:19:21;;;;;;;12.43;10.87;;;7.90;99.90;;;;;;4975354;28;20461;-72
2021/12/26 17:21:49;;;;;;;10.57;9.53;;;7.90;99.90;;;;;;4975187;28;20491;-72
2021/12/26 17:24:16;;;;;;;13.17;10.83;;;7.90;99.90;;;;;;4975402;28;20459;-72
2021/12/26 17:26:43;;;;;;;12.20;10.90;;;7.80;99.90;;;;;;4975606;28;20962;-71
2021/12/26 17:29:10;;;;;;;12.13;10.50;;;7.80;99.90;;;;;;4975620;28;20466;-72
2021/12/26 17:31:36;;;;;;;12.20;10.83;;;7.80;99.90;;;;;;4975191;28;20845;-72
2021/12/26 17:34:03;;;;;;;13.30;11.53;;;7.80;99.90;;;;;;4975232;28;20455;-73
2021/12/26 17:36:31;;;;;;;13.40;12.07;;;7.80;99.90;;;;;;4974931;28;20824;-68
2021/12/26 17:38:59;;;;;;;16.20;12.70;;;7.80;99.90;;;;;;4974977;28;20463;-72
2021/12/26 17:41:26;;;;;;;13.87;12.23;;;7.80;99.90;;;;;;4974895;28;20482;-72
2021/12/26 17:43:52;;;;;;;13.33;12.03;;;7.70;99.90;;;;;;4975196;28;20463;-72
2021/12/26 17:46:20;;;;;;;15.20;12.17;;;7.70;99.90;;;;;;4975622;28;20460;-71
2021/12/26 17:48:47;;;;;;;14.63;12.80;;;7.70;99.90;;;;;;4977731;28;20454;-72
2021/12/26 17:51:14;;;;;;;14.93;12.83;;;7.70;99.90;;;;;;4978200;28;20483;-72
2021/12/26 17:53:41;;;;;;;15.30;12.60;;;7.70;99.90;;;;;;4978123;28;20466;-73